Camden, Indiana
Current Conditions -  °F | °C
As of 8:55 AM on Friday 24 Oct 2014 (Local Time) from KGGP Reporting Station
Overcast Overcast  
Wind Chill: 44°   Ceiling: 2700
Heat Index: 46°   Visibility: 7mi
Dew Point: 43°   Wind: 5mph
Humidity: 87%   Direction: 210°SSW
Pressure: 30.1"   Gusts: NA
Location:  40.61°N, 86.54°W
Report Text: KGGP 241255Z AUTO 21004KT 7SM OVC027 08/06 A3010 RMK AO2
Loading
Personal Weather Stations






























Interactive Weather Map
Tropical Storm Tracking
New forecast layout! Learn more

10-Day Weather Forecast

Advertisements
Track Severe Weather on mobile